Time;durP1;ratioP1;P1;durP2;ratioP2;P2;SDS_P1;SDS_P2;PMS_P1;PMS_P2;Temp;Humidity;BMP_temperature;BMP_pressure;BME280_temperature;BME280_humidity;BME280_pressure;Samples;Min_cycle;Max_cycle;Signal;HPM_P1;HPM_P2
2021/09/01 00:01:13;;;;;;;8.57;5.10;;;;;;;;;;4990734;28;20022;-72
2021/09/01 00:03:38;;;;;;;11.13;5.63;;;;;;;;;;4973204;28;20030;-72
2021/09/01 00:06:05;;;;;;;9.70;5.47;;;;;;;;;;4973079;28;20030;-73
2021/09/01 00:08:31;;;;;;;10.32;6.13;;;;;;;;;;4972913;28;20058;-73
2021/09/01 00:10:57;;;;;;;9.75;5.43;;;;;;;;;;4973255;28;20026;-73
2021/09/01 00:13:22;;;;;;;11.20;6.10;;;;;;;;;;4990292;28;20364;-72
2021/09/01 00:15:48;;;;;;;12.40;5.18;;;;;;;;;;4990491;28;20140;-72
2021/09/01 00:18:13;;;;;;;11.02;6.00;;;;;;;;;;4973056;28;20043;-72
2021/09/01 00:20:39;;;;;;;9.70;4.88;;;;;;;;;;4990918;28;20053;-73
2021/09/01 00:23:04;;;;;;;12.60;6.03;;;;;;;;;;4990140;28;20018;-73
2021/09/01 00:25:30;;;;;;;11.95;5.88;;;;;;;;;;4972521;28;20034;-72
2021/09/01 00:27:55;;;;;;;9.25;5.15;;;;;;;;;;4972698;28;20057;-72
2021/09/01 00:30:21;;;;;;;10.98;5.82;;;;;;;;;;4990363;28;20545;-72
2021/09/01 00:32:46;;;;;;;8.48;5.55;;;;;;;;;;4990212;28;20030;-71
2021/09/01 00:35:12;;;;;;;13.35;6.13;;;;;;;;;;4990471;28;20490;-72
2021/09/01 00:37:38;;;;;;;12.45;6.05;;;;;;;;;;4972480;28;20026;-72
2021/09/01 00:40:04;;;;;;;12.68;6.25;;;;;;;;;;4972966;28;20058;-72
2021/09/01 00:42:30;;;;;;;12.05;5.45;;;;;;;;;;4972464;28;20044;-72
2021/09/01 00:44:55;;;;;;;10.68;5.55;;;;;;;;;;4991961;28;20030;-73
2021/09/01 00:47:22;;;;;;;9.15;5.55;;;;;;;;;;4993992;28;20060;-73
2021/09/01 00:49:49;;;;;;;9.93;5.45;;;;;;;;;;4994318;28;20041;-72
2021/09/01 00:52:15;;;;;;;11.45;6.30;;;;;;;;;;4994411;28;20601;-72
2021/09/01 00:54:40;;;;;;;10.00;5.95;;;;;;;;;;4976369;28;20065;-72
2021/09/01 00:57:07;;;;;;;12.05;5.78;;;;;;;;;;4992529;28;20032;-73
2021/09/01 00:59:43;;;;;;;13.15;5.80;;;;;;;;;;4993960;28;20076;-71
2021/09/01 01:02:08;;;;;;;11.40;5.30;;;;;;;;;;4992544;28;20030;-74
2021/09/01 01:04:35;;;;;;;14.25;5.80;;;;;;;;;;4975876;28;20048;-73
2021/09/01 01:07:07;;;;;;;11.52;5.88;;;;;;;;;;4993588;28;20108;-72
2021/09/01 01:09:36;;;;;;;12.63;6.05;;;;;;;;;;4975926;28;20471;-72
2021/09/01 01:12:09;;;;;;;11.60;6.22;;;;;;;;;;4993447;28;20030;-72
2021/09/01 01:14:40;;;;;;;13.05;5.63;;;;;;;;;;4993723;28;20418;-72
2021/09/01 01:17:11;;;;;;;12.45;6.18;;;;;;;;;;4993809;28;20101;-71
2021/09/01 01:19:43;;;;;;;12.50;6.45;;;;;;;;;;4993787;28;20453;-73
2021/09/01 01:22:10;;;;;;;11.02;6.03;;;;;;;;;;4993581;28;20018;-72
2021/09/01 01:24:48;;;;;;;11.57;5.78;;;;;;;;;;4975983;28;20088;-73
2021/09/01 01:27:43;;;;;;;11.27;6.57;;;;;;;;;;4993206;28;20562;-73
2021/09/01 01:30:11;;;;;;;14.45;5.82;;;;;;;;;;4991447;28;20038;-74
2021/09/01 01:32:37;;;;;;;13.65;6.20;;;;;;;;;;4975224;28;20038;-72
2021/09/01 01:35:03;;;;;;;13.55;6.47;;;;;;;;;;4975455;28;20053;-72
2021/09/01 01:37:29;;;;;;;13.40;6.10;;;;;;;;;;4993281;28;20101;-72
2021/09/01 01:39:54;;;;;;;11.27;5.85;;;;;;;;;;4994183;28;20106;-75
2021/09/01 01:42:20;;;;;;;12.75;5.78;;;;;;;;;;4975403;28;20049;-74
2021/09/01 01:44:45;;;;;;;15.10;6.72;;;;;;;;;;4975543;28;20060;-76
2021/09/01 01:47:11;;;;;;;13.18;6.32;;;;;;;;;;4993005;28;20390;-75
2021/09/01 01:49:36;;;;;;;12.10;6.10;;;;;;;;;;4992929;28;20030;-74
2021/09/01 01:52:02;;;;;;;11.10;6.23;;;;;;;;;;4975567;28;20041;-76
2021/09/01 01:54:28;;;;;;;13.23;7.23;;;;;;;;;;4992677;28;20125;-74
2021/09/01 01:56:53;;;;;;;10.87;5.50;;;;;;;;;;4992004;28;20101;-75
2021/09/01 01:59:19;;;;;;;11.43;5.68;;;;;;;;;;4974960;28;20026;-75
2021/09/01 02:01:45;;;;;;;10.27;5.53;;;;;;;;;;4992174;28;20533;-75
2021/09/01 02:04:10;;;;;;;9.20;6.03;;;;;;;;;;4992745;28;20029;-75
2021/09/01 02:06:36;;;;;;;15.20;6.95;;;;;;;;;;4974587;28;20113;-72
2021/09/01 02:09:02;;;;;;;10.38;5.57;;;;;;;;;;4974939;28;20458;-73
2021/09/01 02:11:27;;;;;;;8.17;5.20;;;;;;;;;;4974703;28;20041;-72
2021/09/01 02:13:53;;;;;;;9.73;6.13;;;;;;;;;;4992397;28;20030;-74
2021/09/01 02:16:18;;;;;;;10.23;6.00;;;;;;;;;;4992162;28;20029;-74
2021/09/01 02:18:44;;;;;;;10.00;5.85;;;;;;;;;;4974582;28;20037;-73
2021/09/01 02:21:09;;;;;;;12.57;6.80;;;;;;;;;;4974814;28;20045;-74
2021/09/01 02:23:35;;;;;;;12.73;5.73;;;;;;;;;;4992163;28;20070;-73
2021/09/01 02:26:00;;;;;;;12.87;6.60;;;;;;;;;;4991944;28;20042;-74
2021/09/01 02:28:25;;;;;;;14.50;5.70;;;;;;;;;;4991868;28;20046;-74
2021/09/01 02:30:52;;;;;;;14.07;6.17;;;;;;;;;;4974693;28;20026;-73
2021/09/01 02:33:17;;;;;;;10.33;6.27;;;;;;;;;;4992087;28;20132;-73
2021/09/01 02:35:43;;;;;;;11.57;6.57;;;;;;;;;;4974560;28;20550;-74
2021/09/01 02:38:08;;;;;;;12.90;7.00;;;;;;;;;;4992112;28;20038;-73
2021/09/01 02:40:34;;;;;;;12.77;6.60;;;;;;;;;;4991641;28;20022;-73
2021/09/01 02:42:59;;;;;;;13.57;6.23;;;;;;;;;;4991861;28;20081;-74
2021/09/01 02:45:25;;;;;;;14.67;6.43;;;;;;;;;;4992126;28;20482;-75
2021/09/01 02:47:50;;;;;;;9.93;6.03;;;;;;;;;;4991481;28;20037;-75
2021/09/01 02:50:16;;;;;;;14.70;7.20;;;;;;;;;;4974128;28;20077;-75
2021/09/01 02:52:42;;;;;;;12.70;6.53;;;;;;;;;;4973793;28;20041;-74
2021/09/01 02:55:08;;;;;;;12.43;6.77;;;;;;;;;;4991566;28;20107;-75
2021/09/01 02:57:34;;;;;;;11.87;7.00;;;;;;;;;;4973726;28;20434;-75
2021/09/01 03:00:00;;;;;;;13.37;6.93;;;;;;;;;;4974443;28;20030;-75
2021/09/01 03:02:25;;;;;;;14.00;6.53;;;;;;;;;;4973947;28;20054;-75
2021/09/01 03:04:51;;;;;;;11.97;6.17;;;;;;;;;;4973567;28;20053;-75
2021/09/01 03:07:16;;;;;;;11.20;6.05;;;;;;;;;;4990826;28;20030;-76
2021/09/01 03:09:42;;;;;;;15.00;6.67;;;;;;;;;;4990309;28;20084;-75
2021/09/01 03:12:07;;;;;;;15.50;7.47;;;;;;;;;;4973645;28;20056;-74
2021/09/01 03:14:33;;;;;;;13.07;7.53;;;;;;;;;;4971698;28;20506;-74
2021/09/01 03:16:58;;;;;;;12.70;5.93;;;;;;;;;;4992538;28;20034;-70
2021/09/01 03:19:24;;;;;;;12.30;6.50;;;;;;;;;;5010904;28;20125;-72
2021/09/01 03:21:50;;;;;;;19.02;6.63;;;;;;;;;;5010649;28;20033;-72
2021/09/01 03:24:16;;;;;;;14.37;7.63;;;;;;;;;;5010968;28;20040;-71
2021/09/01 03:26:43;;;;;;;12.33;6.50;;;;;;;;;;5010673;28;20037;-71
2021/09/01 03:29:09;;;;;;;15.60;7.07;;;;;;;;;;5010687;28;20046;-73
2021/09/01 03:31:35;;;;;;;12.73;6.80;;;;;;;;;;5010202;28;20631;-72
2021/09/01 03:34:01;;;;;;;13.50;6.60;;;;;;;;;;4992770;28;20409;-72
2021/09/01 03:36:27;;;;;;;16.30;6.77;;;;;;;;;;5010479;28;20034;-72
2021/09/01 03:38:53;;;;;;;10.30;5.60;;;;;;;;;;5010573;28;20128;-72
2021/09/01 03:41:18;;;;;;;11.17;6.87;;;;;;;;;;5010434;28;20046;-72
2021/09/01 03:43:44;;;;;;;17.37;7.00;;;;;;;;;;5010266;28;20084;-71
2021/09/01 03:46:09;;;;;;;12.57;6.87;;;;;;;;;;4992466;28;20131;-73
2021/09/01 03:48:35;;;;;;;11.93;6.37;;;;;;;;;;4993683;28;20315;-70
2021/09/01 03:51:01;;;;;;;15.30;6.73;;;;;;;;;;5010601;28;20160;-71
2021/09/01 03:53:26;;;;;;;13.43;6.07;;;;;;;;;;5010403;28;20088;-71
2021/09/01 03:55:52;;;;;;;12.17;7.43;;;;;;;;;;5009819;28;20036;-72
2021/09/01 03:58:17;;;;;;;12.33;7.80;;;;;;;;;;4992344;28;20041;-70
2021/09/01 04:00:43;;;;;;;15.67;7.63;;;;;;;;;;4992194;28;20030;-73
2021/09/01 04:03:09;;;;;;;13.30;7.33;;;;;;;;;;5009950;28;20481;-72
2021/09/01 04:05:35;;;;;;;14.40;7.00;;;;;;;;;;5009864;28;20025;-72
2021/09/01 04:08:01;;;;;;;15.13;7.23;;;;;;;;;;5010341;28;20080;-72
2021/09/01 04:10:27;;;;;;;15.40;7.40;;;;;;;;;;4992642;28;20474;-73
2021/09/01 04:12:53;;;;;;;13.50;7.33;;;;;;;;;;5010080;28;20334;-71
2021/09/01 04:15:19;;;;;;;16.23;8.40;;;;;;;;;;5010076;28;20109;-72
2021/09/01 04:17:44;;;;;;;13.03;7.70;;;;;;;;;;5009631;28;20112;-71
2021/09/01 04:20:10;;;;;;;18.30;8.60;;;;;;;;;;4992161;28;20037;-73
2021/09/01 04:22:35;;;;;;;13.60;7.50;;;;;;;;;;5009980;28;20025;-74
2021/09/01 04:25:02;;;;;;;14.90;6.97;;;;;;;;;;5009845;28;20282;-73
2021/09/01 04:27:27;;;;;;;15.87;8.50;;;;;;;;;;5009732;28;20080;-74
2021/09/01 04:29:53;;;;;;;14.93;7.60;;;;;;;;;;5011986;28;20030;-75
2021/09/01 04:32:19;;;;;;;15.70;7.63;;;;;;;;;;5010467;28;20045;-75
2021/09/01 04:34:45;;;;;;;15.70;7.83;;;;;;;;;;5011074;28;20041;-76
2021/09/01 04:37:10;;;;;;;13.70;7.40;;;;;;;;;;5011810;28;20111;-76
2021/09/01 04:39:36;;;;;;;15.00;7.67;;;;;;;;;;4992355;28;20026;-75
2021/09/01 04:42:02;;;;;;;14.37;7.47;;;;;;;;;;4976032;28;20048;-75
2021/09/01 04:44:28;;;;;;;22.33;9.17;;;;;;;;;;5010019;28;20473;-75
2021/09/01 04:46:53;;;;;;;13.57;7.23;;;;;;;;;;5010045;28;20095;-75
2021/09/01 04:49:19;;;;;;;11.70;7.73;;;;;;;;;;5009734;28;20501;-75
2021/09/01 04:51:44;;;;;;;16.00;7.73;;;;;;;;;;5009628;28;20557;-75
2021/09/01 04:54:10;;;;;;;19.00;8.03;;;;;;;;;;5009974;28;20048;-76
2021/09/01 04:56:37;;;;;;;18.33;8.77;;;;;;;;;;4991773;28;20090;-76
2021/09/01 04:59:02;;;;;;;15.83;8.20;;;;;;;;;;4981544;28;20030;-74
2021/09/01 05:01:28;;;;;;;16.67;6.93;;;;;;;;;;4989985;28;20029;-75
2021/09/01 05:03:54;;;;;;;15.10;7.50;;;;;;;;;;5007654;28;20045;-75
2021/09/01 05:06:20;;;;;;;12.93;7.93;;;;;;;;;;4990359;28;20040;-77
2021/09/01 05:08:45;;;;;;;18.90;8.33;;;;;;;;;;5007210;28;20445;-74
2021/09/01 05:11:12;;;;;;;17.37;7.90;;;;;;;;;;5007866;28;20040;-76
2021/09/01 05:13:38;;;;;;;17.17;7.33;;;;;;;;;;5006739;28;20398;-76
2021/09/01 05:16:04;;;;;;;12.03;7.90;;;;;;;;;;4991698;28;20113;-75
2021/09/01 05:18:30;;;;;;;14.33;7.03;;;;;;;;;;4990129;28;20137;-75
2021/09/01 05:20:58;;;;;;;20.50;7.37;;;;;;;;;;5008247;28;20026;-76
2021/09/01 05:23:30;;;;;;;14.13;7.80;;;;;;;;;;5008721;28;20057;-75
2021/09/01 05:26:20;;;;;;;14.88;7.68;;;;;;;;;;4989979;28;20036;-75
2021/09/01 05:28:48;;;;;;;19.83;8.00;;;;;;;;;;4989388;28;20042;-75
2021/09/01 05:31:14;;;;;;;23.37;9.00;;;;;;;;;;4991805;28;20477;-76
2021/09/01 05:33:48;;;;;;;21.43;8.10;;;;;;;;;;5012307;28;20105;-74
2021/09/01 05:36:15;;;;;;;15.17;7.90;;;;;;;;;;5010673;28;20120;-76
2021/09/01 05:38:44;;;;;;;16.80;7.73;;;;;;;;;;5012215;28;20354;-76
2021/09/01 05:41:11;;;;;;;18.87;9.40;;;;;;;;;;5010890;28;20030;-76
2021/09/01 05:43:38;;;;;;;18.13;9.37;;;;;;;;;;5012410;28;20064;-75
2021/09/01 05:46:05;;;;;;;14.38;7.15;;;;;;;;;;4994589;28;20357;-74
2021/09/01 05:48:32;;;;;;;12.27;7.55;;;;;;;;;;4994250;28;20030;-75
2021/09/01 05:50:58;;;;;;;20.73;7.07;;;;;;;;;;5012097;28;20064;-74
2021/09/01 05:53:24;;;;;;;17.13;7.68;;;;;;;;;;5012387;28;20025;-75
2021/09/01 05:55:52;;;;;;;16.85;7.90;;;;;;;;;;5012446;28;20022;-75
2021/09/01 05:58:19;;;;;;;15.13;7.82;;;;;;;;;;4999105;28;20064;-74
2021/09/01 06:00:58;;;;;;;17.63;6.72;;;;;;;;;;4974737;28;20177;-76
2021/09/01 06:03:37;;;;;;;17.10;6.78;;;;;;;;;;5004311;28;20018;-75
2021/09/01 06:06:04;;;;;;;20.55;7.13;;;;;;;;;;4975285;28;20545;-75
2021/09/01 06:08:32;;;;;;;13.25;6.60;;;;;;;;;;5012132;28;20054;-75
2021/09/01 06:11:02;;;;;;;13.15;6.70;;;;;;;;;;5011836;28;20382;-76
2021/09/01 06:13:27;;;;;;;11.65;6.13;;;;;;;;;;5011923;28;20030;-75
2021/09/01 06:15:55;;;;;;;12.70;6.60;;;;;;;;;;4993667;28;20064;-75
2021/09/01 06:18:20;;;;;;;9.90;5.60;;;;;;;;;;5002683;28;20029;-76
2021/09/01 06:20:47;;;;;;;12.65;6.60;;;;;;;;;;5011549;28;20026;-75
2021/09/01 06:23:12;;;;;;;20.90;6.43;;;;;;;;;;5011939;28;20057;-77
2021/09/01 06:25:38;;;;;;;12.27;6.35;;;;;;;;;;5012228;28;20038;-74
2021/09/01 06:28:08;;;;;;;12.13;6.10;;;;;;;;;;5011477;28;20514;-76
2021/09/01 06:30:35;;;;;;;11.93;5.82;;;;;;;;;;4993848;28;20022;-76
2021/09/01 06:33:00;;;;;;;11.18;6.35;;;;;;;;;;5009859;28;20034;-77
2021/09/01 06:35:26;;;;;;;15.15;6.40;;;;;;;;;;5011800;28;20501;-76
2021/09/01 06:37:51;;;;;;;10.98;6.13;;;;;;;;;;4990493;28;20089;-75
2021/09/01 06:40:19;;;;;;;16.17;6.80;;;;;;;;;;5000743;28;20036;-75
2021/09/01 06:42:44;;;;;;;10.75;6.00;;;;;;;;;;4958784;28;20031;-76
2021/09/01 06:45:11;;;;;;;10.75;5.95;;;;;;;;;;4974985;28;20064;-76
2021/09/01 06:47:42;;;;;;;11.38;6.20;;;;;;;;;;4991378;28;20130;-76
2021/09/01 06:50:09;;;;;;;13.00;7.03;;;;;;;;;;4988890;28;20040;-75
2021/09/01 06:52:35;;;;;;;14.43;6.88;;;;;;;;;;4974425;28;20037;-75
2021/09/01 06:55:00;;;;;;;17.55;5.88;;;;;;;;;;4992207;28;20034;-74
2021/09/01 06:57:26;;;;;;;12.25;5.72;;;;;;;;;;4992514;28;20042;-76
2021/09/01 06:59:51;;;;;;;13.60;6.07;;;;;;;;;;4995125;28;20040;-73
2021/09/01 07:02:17;;;;;;;9.40;5.32;;;;;;;;;;4990654;28;20454;-75
2021/09/01 07:04:42;;;;;;;10.90;5.82;;;;;;;;;;4991570;28;20089;-76
2021/09/01 07:07:09;;;;;;;11.20;6.47;;;;;;;;;;4997474;28;20468;-75
2021/09/01 07:09:34;;;;;;;11.32;6.18;;;;;;;;;;4993987;28;20034;-76
2021/09/01 07:12:00;;;;;;;13.07;5.93;;;;;;;;;;4970179;28;20053;-73
2021/09/01 07:14:25;;;;;;;16.85;6.07;;;;;;;;;;4971250;28;20036;-74
2021/09/01 07:16:51;;;;;;;14.05;5.88;;;;;;;;;;4992444;28;20036;-76
2021/09/01 07:19:16;;;;;;;10.98;5.97;;;;;;;;;;4983765;28;20026;-75
2021/09/01 07:21:42;;;;;;;11.52;6.43;;;;;;;;;;4993276;28;20038;-72
2021/09/01 07:24:09;;;;;;;11.77;6.05;;;;;;;;;;4984572;28;20042;-75
2021/09/01 07:26:36;;;;;;;17.85;8.73;;;;;;;;;;4989820;28;20061;-75
2021/09/01 07:29:02;;;;;;;14.32;6.70;;;;;;;;;;4983585;28;20576;-75
2021/09/01 07:31:30;;;;;;;18.35;8.93;;;;;;;;;;4972500;28;20154;-75
2021/09/01 07:33:59;;;;;;;12.40;6.43;;;;;;;;;;4991133;28;20045;-76
2021/09/01 07:36:25;;;;;;;10.88;6.15;;;;;;;;;;4974891;28;20039;-76
2021/09/01 07:38:51;;;;;;;9.63;5.57;;;;;;;;;;4987619;28;20034;-76
2021/09/01 07:41:17;;;;;;;14.70;6.20;;;;;;;;;;4987464;28;20030;-74
2021/09/01 07:43:43;;;;;;;11.80;6.18;;;;;;;;;;4967801;28;20037;-75
2021/09/01 07:46:09;;;;;;;11.00;6.65;;;;;;;;;;4969718;28;20048;-76
2021/09/01 07:48:35;;;;;;;12.15;6.18;;;;;;;;;;4962291;28;20037;-75
2021/09/01 07:51:02;;;;;;;16.05;7.78;;;;;;;;;;4990358;28;20036;-76
2021/09/01 07:53:27;;;;;;;15.45;7.05;;;;;;;;;;4974122;28;20121;-74
2021/09/01 07:55:53;;;;;;;12.85;6.18;;;;;;;;;;4987203;28;20108;-74
2021/09/01 07:58:18;;;;;;;9.15;6.05;;;;;;;;;;4986052;28;20026;-75
2021/09/01 08:00:45;;;;;;;10.77;5.60;;;;;;;;;;4973175;28;20512;-77
2021/09/01 08:03:10;;;;;;;12.93;6.30;;;;;;;;;;4986234;28;20057;-76
2021/09/01 08:05:36;;;;;;;12.95;5.82;;;;;;;;;;4988035;28;20424;-75
2021/09/01 08:08:02;;;;;;;9.65;5.40;;;;;;;;;;4984277;28;20471;-74
2021/09/01 08:10:30;;;;;;;11.55;5.35;;;;;;;;;;4988099;28;20026;-77
2021/09/01 08:12:55;;;;;;;15.75;5.80;;;;;;;;;;4954031;28;20126;-77
2021/09/01 08:15:21;;;;;;;11.15;5.68;;;;;;;;;;4988909;28;20545;-76
2021/09/01 08:17:50;;;;;;;9.65;5.80;;;;;;;;;;4969090;28;20348;-74
2021/09/01 08:20:16;;;;;;;18.13;5.70;;;;;;;;;;4979231;28;20038;-78
2021/09/01 08:22:42;;;;;;;15.68;6.28;;;;;;;;;;4967866;28;20038;-76
2021/09/01 08:25:09;;;;;;;12.75;6.50;;;;;;;;;;4985559;28;20045;-76
2021/09/01 08:27:34;;;;;;;11.73;6.03;;;;;;;;;;4985761;28;20077;-76
2021/09/01 08:30:00;;;;;;;10.35;5.28;;;;;;;;;;4963855;28;20319;-76
2021/09/01 08:32:25;;;;;;;12.48;6.43;;;;;;;;;;4988227;28;20027;-73
2021/09/01 08:34:51;;;;;;;10.20;5.13;;;;;;;;;;4981660;28;20393;-74
2021/09/01 08:37:17;;;;;;;10.82;5.78;;;;;;;;;;4989755;28;20076;-75
2021/09/01 08:39:42;;;;;;;12.10;5.88;;;;;;;;;;4983821;28;20455;-75
2021/09/01 08:42:08;;;;;;;11.23;5.85;;;;;;;;;;4970530;28;20029;-76
2021/09/01 08:44:35;;;;;;;8.30;4.95;;;;;;;;;;4990886;28;20109;-75
2021/09/01 08:47:02;;;;;;;14.38;6.35;;;;;;;;;;4984611;28;20093;-76
2021/09/01 08:49:30;;;;;;;11.73;5.28;;;;;;;;;;4966521;28;20060;-74
2021/09/01 08:51:56;;;;;;;15.00;5.47;;;;;;;;;;4987329;28;20057;-73
2021/09/01 08:54:22;;;;;;;12.80;6.32;;;;;;;;;;4983805;28;20436;-75
2021/09/01 08:56:49;;;;;;;7.93;5.15;;;;;;;;;;4967641;28;20041;-75
2021/09/01 08:59:15;;;;;;;9.88;5.85;;;;;;;;;;4987256;28;20399;-75
2021/09/01 09:01:43;;;;;;;8.85;5.85;;;;;;;;;;4989300;28;20043;-75
2021/09/01 09:04:18;;;;;;;12.40;6.75;;;;;;;;;;4968977;28;20034;-77
2021/09/01 09:06:56;;;;;;;10.90;6.18;;;;;;;;;;4987169;28;20038;-74
2021/09/01 09:09:29;;;;;;;10.27;6.05;;;;;;;;;;4967004;28;20104;-77
2021/09/01 09:11:58;;;;;;;10.38;6.40;;;;;;;;;;4969616;28;20052;-74
2021/09/01 09:14:30;;;;;;;9.30;5.63;;;;;;;;;;4971526;28;20096;-74
2021/09/01 09:17:15;;;;;;;12.43;6.32;;;;;;;;;;4985333;28;20034;-73
2021/09/01 09:19:48;;;;;;;9.80;5.47;;;;;;;;;;4973865;28;20038;-75
2021/09/01 09:22:19;;;;;;;15.25;6.30;;;;;;;;;;4994630;28;20033;-75
2021/09/01 09:25:11;;;;;;;11.18;7.30;;;;;;;;;;4972482;28;20034;-76
2021/09/01 09:27:52;;;;;;;12.77;6.68;;;;;;;;;;4970012;28;20105;-75
2021/09/01 09:30:21;;;;;;;13.32;6.20;;;;;;;;;;4991484;28;20397;-75
2021/09/01 09:33:03;;;;;;;11.02;5.95;;;;;;;;;;4992671;28;20023;-72
2021/09/01 09:35:49;;;;;;;11.18;6.35;;;;;;;;;;4955287;28;20051;-76
2021/09/01 09:38:31;;;;;;;15.40;6.60;;;;;;;;;;4964995;28;20108;-77
2021/09/01 09:41:03;;;;;;;10.63;6.35;;;;;;;;;;4990269;28;20029;-76
2021/09/01 09:43:29;;;;;;;10.73;6.60;;;;;;;;;;4991192;28;20611;-75
2021/09/01 09:46:06;;;;;;;11.68;6.65;;;;;;;;;;4994935;28;20105;-74
2021/09/01 09:48:33;;;;;;;12.18;6.32;;;;;;;;;;4978224;28;20400;-77
2021/09/01 09:51:02;;;;;;;9.93;6.15;;;;;;;;;;4989304;28;20330;-76
2021/09/01 09:53:41;;;;;;;19.90;6.55;;;;;;;;;;4990697;28;20054;-75
2021/09/01 09:56:20;;;;;;;10.45;6.25;;;;;;;;;;4988913;28;20117;-76
2021/09/01 09:58:53;;;;;;;10.40;6.05;;;;;;;;;;4983221;28;20034;-77
2021/09/01 10:01:20;;;;;;;10.77;5.40;;;;;;;;;;4993806;28;20080;-74
2021/09/01 10:03:47;;;;;;;9.93;5.47;;;;;;;;;;4971233;28;20124;-74
2021/09/01 10:06:18;;;;;;;12.93;5.30;;;;;;;;;;4984181;28;20060;-75
2021/09/01 10:08:47;;;;;;;10.00;5.15;;;;;;;;;;4956162;28;20042;-75
2021/09/01 10:11:16;;;;;;;10.38;5.93;;;;;;;;;;4993955;28;20037;-78
2021/09/01 10:13:45;;;;;;;12.13;6.65;;;;;;;;;;4984623;28;20038;-74
2021/09/01 10:16:34;;;;;;;20.15;8.75;;;;;;;;;;4993406;28;20426;-75
2021/09/01 10:19:17;;;;;;;9.73;6.18;;;;;;;;;;4991987;28;20065;-75
2021/09/01 10:21:45;;;;;;;11.02;6.38;;;;;;;;;;4976022;28;20746;-75
2021/09/01 10:24:29;;;;;;;20.13;7.43;;;;;;;;;;4987356;28;20188;-74
2021/09/01 10:27:07;;;;;;;16.15;6.22;;;;;;;;;;4991719;28;20061;-74
2021/09/01 10:29:50;;;;;;;11.50;5.30;;;;;;;;;;4992595;28;20064;-73
2021/09/01 10:32:22;;;;;;;14.18;5.72;;;;;;;;;;4966250;28;20125;-75
2021/09/01 10:34:48;;;;;;;12.52;5.68;;;;;;;;;;4987889;28;20302;-73
2021/09/01 10:37:36;;;;;;;12.15;6.32;;;;;;;;;;4982315;28;20025;-76
2021/09/01 10:40:02;;;;;;;12.40;6.85;;;;;;;;;;4966066;28;20030;-75
2021/09/01 10:42:37;;;;;;;12.23;5.97;;;;;;;;;;4967021;28;20026;-75
2021/09/01 10:45:05;;;;;;;10.07;6.03;;;;;;;;;;4987292;28;20506;-75
2021/09/01 10:48:12;;;;;;;10.93;5.43;;;;;;;;;;4987842;28;20709;-74
2021/09/01 10:50:46;;;;;;;9.90;5.75;;;;;;;;;;4981460;28;20076;-75
2021/09/01 10:53:27;;;;;;;10.18;6.78;;;;;;;;;;4969340;28;20053;-76
2021/09/01 10:56:04;;;;;;;16.40;6.40;;;;;;;;;;4967721;28;20506;-75
2021/09/01 10:58:36;;;;;;;10.25;5.97;;;;;;;;;;4969301;28;20049;-75
2021/09/01 11:01:16;;;;;;;12.68;6.38;;;;;;;;;;4990533;28;20625;-76
2021/09/01 11:03:43;;;;;;;11.02;6.07;;;;;;;;;;4992194;28;20141;-73
2021/09/01 11:06:16;;;;;;;11.68;5.97;;;;;;;;;;4958074;28;20077;-75
2021/09/01 11:08:56;;;;;;;11.65;6.47;;;;;;;;;;4986790;28;20496;-76
2021/09/01 11:11:21;;;;;;;17.17;6.10;;;;;;;;;;4986184;28;20057;-74
2021/09/01 11:13:47;;;;;;;10.45;5.70;;;;;;;;;;4988451;28;20069;-75
2021/09/01 11:16:21;;;;;;;12.68;6.90;;;;;;;;;;4972477;28;21369;-75
2021/09/01 11:19:10;;;;;;;12.27;6.70;;;;;;;;;;4965907;28;20399;-74
2021/09/01 11:21:44;;;;;;;10.43;6.75;;;;;;;;;;4947005;28;20070;-75
2021/09/01 11:24:11;;;;;;;16.38;8.55;;;;;;;;;;4968467;28;20035;-75
2021/09/01 11:26:38;;;;;;;14.10;6.88;;;;;;;;;;4960493;28;20035;-77
2021/09/01 11:29:07;;;;;;;12.50;7.22;;;;;;;;;;4948262;28;20408;-76
2021/09/01 11:31:42;;;;;;;13.63;6.45;;;;;;;;;;4966884;28;20098;-76
2021/09/01 11:34:13;;;;;;;12.05;7.05;;;;;;;;;;4952404;28;20038;-79
2021/09/01 11:36:42;;;;;;;12.85;7.50;;;;;;;;;;4950639;28;20050;-76
2021/09/01 11:39:10;;;;;;;14.35;7.70;;;;;;;;;;4966244;28;20403;-76
2021/09/01 11:41:37;;;;;;;14.95;7.55;;;;;;;;;;4950041;28;20034;-77
2021/09/01 11:44:04;;;;;;;14.23;6.53;;;;;;;;;;4963661;28;20031;-76
2021/09/01 11:46:34;;;;;;;25.77;8.98;;;;;;;;;;4947948;28;20035;-75
2021/09/01 11:49:10;;;;;;;17.60;7.85;;;;;;;;;;4949035;28;20030;-77
2021/09/01 11:51:39;;;;;;;22.98;8.80;;;;;;;;;;4965117;28;20026;-74
2021/09/01 11:54:06;;;;;;;19.58;10.15;;;;;;;;;;4970356;28;20092;-75
2021/09/01 11:56:32;;;;;;;17.77;9.15;;;;;;;;;;4966641;28;20138;-75
2021/09/01 11:59:00;;;;;;;11.93;7.55;;;;;;;;;;4949486;28;20022;-76
2021/09/01 12:01:27;;;;;;;12.63;7.22;;;;;;;;;;4946110;28;20050;-73
2021/09/01 12:03:55;;;;;;;16.33;7.60;;;;;;;;;;4947523;28;20377;-75
2021/09/01 12:06:32;;;;;;;18.38;8.88;;;;;;;;;;4948036;28;20026;-75
2021/09/01 12:08:59;;;;;;;24.25;9.68;;;;;;;;;;4945866;28;20536;-75
2021/09/01 12:11:28;;;;;;;21.35;9.93;;;;;;;;;;4962193;28;20026;-75
2021/09/01 12:14:02;;;;;;;17.73;10.32;;;;;;;;;;4960767;28;20037;-74
2021/09/01 12:16:27;;;;;;;17.30;8.07;;;;;;;;;;4963270;28;20034;-75
2021/09/01 12:18:54;;;;;;;15.05;8.27;;;;;;;;;;4946654;28;20414;-75
2021/09/01 12:21:22;;;;;;;16.65;7.95;;;;;;;;;;4965853;28;20144;-75
2021/09/01 12:24:16;;;;;;;17.48;8.60;;;;;;;;;;4966384;28;20058;-74
2021/09/01 12:27:11;;;;;;;18.35;9.02;;;;;;;;;;4968085;28;20058;-73
2021/09/01 12:29:42;;;;;;;14.00;7.22;;;;;;;;;;4946536;28;20199;-77
2021/09/01 12:32:14;;;;;;;17.92;8.65;;;;;;;;;;4947066;28;20731;-77
2021/09/01 12:34:43;;;;;;;18.45;8.20;;;;;;;;;;4946183;28;20038;-76
2021/09/01 12:37:12;;;;;;;17.38;8.57;;;;;;;;;;4963691;28;20026;-73
2021/09/01 12:39:47;;;;;;;11.70;7.55;;;;;;;;;;4959553;28;20088;-74
2021/09/01 12:42:24;;;;;;;17.20;9.30;;;;;;;;;;4964192;28;20031;-75
2021/09/01 12:44:52;;;;;;;29.08;12.27;;;;;;;;;;4965382;28;20070;-74
2021/09/01 12:47:18;;;;;;;26.20;11.38;;;;;;;;;;4957432;28;20331;-75
2021/09/01 12:49:47;;;;;;;21.30;9.63;;;;;;;;;;4949094;28;20031;-76
2021/09/01 12:52:16;;;;;;;17.10;8.23;;;;;;;;;;4953306;28;20534;-76
2021/09/01 12:54:41;;;;;;;16.02;7.50;;;;;;;;;;4952732;28;20044;-75
2021/09/01 12:57:09;;;;;;;16.25;8.88;;;;;;;;;;4967229;28;20716;-74
2021/09/01 12:59:35;;;;;;;22.02;8.05;;;;;;;;;;4961156;28;20114;-74
2021/09/01 13:02:06;;;;;;;15.27;8.65;;;;;;;;;;4962692;28;20046;-75
2021/09/01 13:04:32;;;;;;;18.58;9.40;;;;;;;;;;4946206;28;20038;-75
2021/09/01 13:06:58;;;;;;;14.43;8.02;;;;;;;;;;4949513;28;20065;-74
2021/09/01 13:09:24;;;;;;;15.13;8.40;;;;;;;;;;4967950;28;20412;-76
2021/09/01 13:11:50;;;;;;;18.45;9.00;;;;;;;;;;4968622;28;20457;-77
2021/09/01 13:14:17;;;;;;;15.82;8.43;;;;;;;;;;4973963;28;20045;-74
2021/09/01 13:16:44;;;;;;;13.82;8.35;;;;;;;;;;4966558;28;20026;-75
2021/09/01 13:19:11;;;;;;;18.73;9.20;;;;;;;;;;4950082;28;20546;-74
2021/09/01 13:21:36;;;;;;;18.17;8.85;;;;;;;;;;4965567;28;20038;-75
2021/09/01 13:24:03;;;;;;;16.75;9.07;;;;;;;;;;4963527;28;20723;-76
2021/09/01 13:26:29;;;;;;;14.13;9.15;;;;;;;;;;4963098;28;20031;-74
2021/09/01 13:28:55;;;;;;;17.45;9.07;;;;;;;;;;4936896;28;20131;-75
2021/09/01 13:31:20;;;;;;;13.73;8.50;;;;;;;;;;4938622;28;20101;-74
2021/09/01 13:33:47;;;;;;;15.27;8.68;;;;;;;;;;4954521;28;20459;-74
2021/09/01 13:36:14;;;;;;;15.80;9.45;;;;;;;;;;4950702;28;20068;-75
2021/09/01 13:38:41;;;;;;;13.38;8.98;;;;;;;;;;4959104;28;20035;-74
2021/09/01 13:41:06;;;;;;;17.45;9.73;;;;;;;;;;4955882;28;20030;-75
2021/09/01 13:43:33;;;;;;;13.18;8.73;;;;;;;;;;4938986;28;20585;-76
2021/09/01 13:45:59;;;;;;;17.02;8.70;;;;;;;;;;4957971;28;20508;-74
2021/09/01 13:48:24;;;;;;;17.73;9.80;;;;;;;;;;4961116;28;20042;-75
2021/09/01 13:50:51;;;;;;;15.48;9.02;;;;;;;;;;4958470;28;20579;-76
2021/09/01 13:53:17;;;;;;;18.60;9.50;;;;;;;;;;4956802;28;20047;-76
2021/09/01 13:55:46;;;;;;;18.15;9.85;;;;;;;;;;4945867;28;20039;-78
2021/09/01 13:58:11;;;;;;;14.07;9.30;;;;;;;;;;4939644;28;20030;-75
2021/09/01 14:00:40;;;;;;;15.60;9.15;;;;;;;;;;4953664;28;20373;-76
2021/09/01 14:03:10;;;;;;;14.70;9.10;;;;;;;;;;4937322;28;20042;-78
2021/09/01 14:05:35;;;;;;;19.35;8.65;;;;;;;;;;4952592;28;20026;-74
2021/09/01 14:08:01;;;;;;;15.35;8.60;;;;;;;;;;4955553;28;20383;-73
2021/09/01 14:10:28;;;;;;;12.48;7.10;;;;;;;;;;4939760;28;20081;-76
2021/09/01 14:12:54;;;;;;;15.02;7.47;;;;;;;;;;4946229;28;20507;-74
2021/09/01 14:15:19;;;;;;;14.30;7.97;;;;;;;;;;4951548;28;20039;-74
2021/09/01 14:17:45;;;;;;;16.42;8.43;;;;;;;;;;4955877;28;20074;-76
2021/09/01 14:20:11;;;;;;;13.13;7.88;;;;;;;;;;4946836;28;20047;-73
2021/09/01 14:22:37;;;;;;;13.77;7.43;;;;;;;;;;4924798;28;20088;-73
2021/09/01 14:25:05;;;;;;;11.60;7.25;;;;;;;;;;4948601;28;20027;-77
2021/09/01 14:27:30;;;;;;;12.35;6.93;;;;;;;;;;4940122;28;20063;-74
2021/09/01 14:29:56;;;;;;;12.68;7.25;;;;;;;;;;4940861;28;20375;-75
2021/09/01 14:32:23;;;;;;;18.30;8.95;;;;;;;;;;4932119;28;20106;-76
2021/09/01 14:34:48;;;;;;;33.80;11.30;;;;;;;;;;4939174;28;20066;-77
2021/09/01 14:37:14;;;;;;;16.92;9.95;;;;;;;;;;4955094;28;20471;-75